sensor_id;sensor_type;location;lat;lon;timestamp;P1;durP1;ratioP1;P2;durP2;ratioP2
74616;SDS011;63123;50.906;4.198;2023-07-20T00:01:14;1.80;;;1.50;;
74616;SDS011;63123;50.906;4.198;2023-07-20T00:03:40;1.58;;;1.48;;
74616;SDS011;63123;50.906;4.198;2023-07-20T00:06:06;1.30;;;1.20;;
74616;SDS011;63123;50.906;4.198;2023-07-20T00:08:32;1.90;;;1.70;;
74616;SDS011;63123;50.906;4.198;2023-07-20T00:10:58;1.92;;;1.58;;
74616;SDS011;63123;50.906;4.198;2023-07-20T00:13:23;2.00;;;1.80;;
74616;SDS011;63123;50.906;4.198;2023-07-20T00:15:49;1.40;;;1.30;;
74616;SDS011;63123;50.906;4.198;2023-07-20T00:18:16;1.45;;;1.33;;
74616;SDS011;63123;50.906;4.198;2023-07-20T00:20:41;1.30;;;1.20;;
74616;SDS011;63123;50.906;4.198;2023-07-20T00:23:07;1.95;;;1.75;;
74616;SDS011;63123;50.906;4.198;2023-07-20T00:25:32;1.75;;;1.50;;
74616;SDS011;63123;50.906;4.198;2023-07-20T00:27:59;1.40;;;1.30;;
74616;SDS011;63123;50.906;4.198;2023-07-20T00:30:25;1.58;;;1.45;;
74616;SDS011;63123;50.906;4.198;2023-07-20T00:32:50;1.63;;;1.52;;
74616;SDS011;63123;50.906;4.198;2023-07-20T00:35:16;1.33;;;1.23;;
74616;SDS011;63123;50.906;4.198;2023-07-20T00:37:41;1.58;;;1.48;;
74616;SDS011;63123;50.906;4.198;2023-07-20T00:40:07;1.92;;;1.38;;
74616;SDS011;63123;50.906;4.198;2023-07-20T00:42:33;1.67;;;1.50;;
74616;SDS011;63123;50.906;4.198;2023-07-20T00:44:59;1.80;;;1.25;;
74616;SDS011;63123;50.906;4.198;2023-07-20T00:47:25;1.50;;;1.40;;
74616;SDS011;63123;50.906;4.198;2023-07-20T00:49:51;2.22;;;1.48;;
74616;SDS011;63123;50.906;4.198;2023-07-20T00:52:18;1.40;;;1.30;;
74616;SDS011;63123;50.906;4.198;2023-07-20T00:54:45;1.60;;;1.50;;
74616;SDS011;63123;50.906;4.198;2023-07-20T00:57:12;1.83;;;1.45;;
74616;SDS011;63123;50.906;4.198;2023-07-20T00:59:39;1.77;;;1.50;;
74616;SDS011;63123;50.906;4.198;2023-07-20T01:02:05;1.58;;;1.38;;
74616;SDS011;63123;50.906;4.198;2023-07-20T01:04:31;2.25;;;1.20;;
74616;SDS011;63123;50.906;4.198;2023-07-20T01:06:58;1.38;;;1.20;;
74616;SDS011;63123;50.906;4.198;2023-07-20T01:10:33;1.77;;;1.33;;
74616;SDS011;63123;50.906;4.198;2023-07-20T01:12:41;1.60;;;1.50;;
74616;SDS011;63123;50.906;4.198;2023-07-20T01:15:08;1.80;;;1.13;;
74616;SDS011;63123;50.906;4.198;2023-07-20T01:17:34;1.38;;;1.27;;
74616;SDS011;63123;50.906;4.198;2023-07-20T01:20:00;1.55;;;1.45;;
74616;SDS011;63123;50.906;4.198;2023-07-20T01:25:22;1.85;;;1.55;;
74616;SDS011;63123;50.906;4.198;2023-07-20T01:31:21;1.52;;;1.40;;
74616;SDS011;63123;50.906;4.198;2023-07-20T01:33:47;1.63;;;1.30;;
74616;SDS011;63123;50.906;4.198;2023-07-20T01:36:16;1.40;;;1.30;;
74616;SDS011;63123;50.906;4.198;2023-07-20T01:38:43;1.40;;;1.30;;
74616;SDS011;63123;50.906;4.198;2023-07-20T01:41:10;1.40;;;1.30;;
74616;SDS011;63123;50.906;4.198;2023-07-20T01:43:36;1.50;;;1.20;;
74616;SDS011;63123;50.906;4.198;2023-07-20T01:46:01;1.63;;;1.23;;
74616;SDS011;63123;50.906;4.198;2023-07-20T01:48:27;1.73;;;1.48;;
74616;SDS011;63123;50.906;4.198;2023-07-20T01:50:53;1.38;;;1.27;;
74616;SDS011;63123;50.906;4.198;2023-07-20T01:53:19;1.80;;;1.48;;
74616;SDS011;63123;50.906;4.198;2023-07-20T01:55:45;2.13;;;1.70;;
74616;SDS011;63123;50.906;4.198;2023-07-20T01:58:11;1.80;;;1.40;;
74616;SDS011;63123;50.906;4.198;2023-07-20T02:00:36;1.38;;;1.27;;
74616;SDS011;63123;50.906;4.198;2023-07-20T02:03:03;1.35;;;1.25;;
74616;SDS011;63123;50.906;4.198;2023-07-20T02:05:29;1.45;;;1.30;;
74616;SDS011;63123;50.906;4.198;2023-07-20T02:07:55;2.08;;;1.65;;
74616;SDS011;63123;50.906;4.198;2023-07-20T02:10:20;1.42;;;1.33;;
74616;SDS011;63123;50.906;4.198;2023-07-20T02:12:46;1.88;;;1.20;;
74616;SDS011;63123;50.906;4.198;2023-07-20T02:15:12;1.50;;;1.20;;
74616;SDS011;63123;50.906;4.198;2023-07-20T02:17:40;1.70;;;1.55;;
74616;SDS011;63123;50.906;4.198;2023-07-20T02:20:06;1.10;;;1.00;;
74616;SDS011;63123;50.906;4.198;2023-07-20T02:22:39;1.20;;;1.10;;
74616;SDS011;63123;50.906;4.198;2023-07-20T02:25:05;1.48;;;1.38;;
74616;SDS011;63123;50.906;4.198;2023-07-20T02:27:32;3.72;;;1.20;;
74616;SDS011;63123;50.906;4.198;2023-07-20T02:29:58;1.58;;;1.48;;
74616;SDS011;63123;50.906;4.198;2023-07-20T02:32:24;1.80;;;1.38;;
74616;SDS011;63123;50.906;4.198;2023-07-20T02:34:49;1.70;;;1.50;;
74616;SDS011;63123;50.906;4.198;2023-07-20T02:37:16;1.33;;;1.23;;
74616;SDS011;63123;50.906;4.198;2023-07-20T02:39:42;1.38;;;1.27;;
74616;SDS011;63123;50.906;4.198;2023-07-20T02:42:07;1.40;;;1.30;;
74616;SDS011;63123;50.906;4.198;2023-07-20T02:44:33;1.33;;;1.23;;
74616;SDS011;63123;50.906;4.198;2023-07-20T02:46:59;1.33;;;1.23;;
74616;SDS011;63123;50.906;4.198;2023-07-20T02:49:24;1.40;;;1.30;;
74616;SDS011;63123;50.906;4.198;2023-07-20T02:51:50;1.10;;;1.00;;
74616;SDS011;63123;50.906;4.198;2023-07-20T02:54:15;1.77;;;1.50;;
74616;SDS011;63123;50.906;4.198;2023-07-20T02:56:41;2.08;;;1.63;;
74616;SDS011;63123;50.906;4.198;2023-07-20T02:59:07;1.50;;;1.40;;
74616;SDS011;63123;50.906;4.198;2023-07-20T03:01:33;1.70;;;1.60;;
74616;SDS011;63123;50.906;4.198;2023-07-20T03:03:58;1.80;;;1.35;;
74616;SDS011;63123;50.906;4.198;2023-07-20T03:06:24;1.35;;;1.25;;
74616;SDS011;63123;50.906;4.198;2023-07-20T03:08:50;1.83;;;1.45;;
74616;SDS011;63123;50.906;4.198;2023-07-20T03:11:18;1.30;;;1.20;;
74616;SDS011;63123;50.906;4.198;2023-07-20T03:13:45;2.00;;;1.40;;
74616;SDS011;63123;50.906;4.198;2023-07-20T03:16:12;1.52;;;1.13;;
74616;SDS011;63123;50.906;4.198;2023-07-20T03:18:40;1.50;;;1.40;;
74616;SDS011;63123;50.906;4.198;2023-07-20T03:21:07;1.38;;;1.27;;
74616;SDS011;63123;50.906;4.198;2023-07-20T03:23:33;1.25;;;1.15;;
74616;SDS011;63123;50.906;4.198;2023-07-20T03:25:59;1.40;;;1.30;;
74616;SDS011;63123;50.906;4.198;2023-07-20T03:28:25;1.67;;;1.58;;
74616;SDS011;63123;50.906;4.198;2023-07-20T03:30:57;1.38;;;0.98;;
74616;SDS011;63123;50.906;4.198;2023-07-20T03:33:27;1.65;;;1.42;;
74616;SDS011;63123;50.906;4.198;2023-07-20T03:35:54;1.15;;;1.05;;
74616;SDS011;63123;50.906;4.198;2023-07-20T03:38:20;1.75;;;1.20;;
74616;SDS011;63123;50.906;4.198;2023-07-20T03:40:52;2.35;;;1.50;;
74616;SDS011;63123;50.906;4.198;2023-07-20T03:43:19;1.27;;;1.10;;
74616;SDS011;63123;50.906;4.198;2023-07-20T03:45:45;2.25;;;1.38;;
74616;SDS011;63123;50.906;4.198;2023-07-20T03:48:13;1.65;;;1.10;;
74616;SDS011;63123;50.906;4.198;2023-07-20T03:50:43;1.40;;;1.30;;
74616;SDS011;63123;50.906;4.198;2023-07-20T03:53:13;1.63;;;1.50;;
74616;SDS011;63123;50.906;4.198;2023-07-20T03:55:40;1.65;;;1.20;;
74616;SDS011;63123;50.906;4.198;2023-07-20T03:58:16;1.63;;;1.52;;
74616;SDS011;63123;50.906;4.198;2023-07-20T04:00:45;1.23;;;1.13;;
74616;SDS011;63123;50.906;4.198;2023-07-20T04:03:12;1.77;;;1.27;;
74616;SDS011;63123;50.906;4.198;2023-07-20T04:05:38;1.30;;;1.20;;
74616;SDS011;63123;50.906;4.198;2023-07-20T04:08:04;1.55;;;1.30;;
74616;SDS011;63123;50.906;4.198;2023-07-20T04:10:29;1.50;;;1.40;;
74616;SDS011;63123;50.906;4.198;2023-07-20T04:12:55;1.10;;;1.00;;
74616;SDS011;63123;50.906;4.198;2023-07-20T04:15:21;1.45;;;1.23;;
74616;SDS011;63123;50.906;4.198;2023-07-20T04:17:46;1.90;;;1.30;;
74616;SDS011;63123;50.906;4.198;2023-07-20T04:20:12;1.40;;;1.30;;
74616;SDS011;63123;50.906;4.198;2023-07-20T04:22:38;1.55;;;1.45;;
74616;SDS011;63123;50.906;4.198;2023-07-20T04:25:04;1.60;;;1.50;;
74616;SDS011;63123;50.906;4.198;2023-07-20T04:27:30;1.60;;;1.15;;
74616;SDS011;63123;50.906;4.198;2023-07-20T04:29:55;1.98;;;1.73;;
74616;SDS011;63123;50.906;4.198;2023-07-20T04:32:23;1.13;;;1.02;;
74616;SDS011;63123;50.906;4.198;2023-07-20T04:34:50;1.20;;;1.10;;
74616;SDS011;63123;50.906;4.198;2023-07-20T04:37:15;2.35;;;1.35;;
74616;SDS011;63123;50.906;4.198;2023-07-20T04:39:41;1.40;;;1.30;;
74616;SDS011;63123;50.906;4.198;2023-07-20T04:42:06;1.58;;;1.33;;
74616;SDS011;63123;50.906;4.198;2023-07-20T04:44:32;1.45;;;1.35;;
74616;SDS011;63123;50.906;4.198;2023-07-20T04:46:58;1.75;;;1.65;;
74616;SDS011;63123;50.906;4.198;2023-07-20T04:49:23;1.30;;;1.17;;
74616;SDS011;63123;50.906;4.198;2023-07-20T04:51:49;1.38;;;1.27;;
74616;SDS011;63123;50.906;4.198;2023-07-20T04:54:16;2.35;;;1.52;;
74616;SDS011;63123;50.906;4.198;2023-07-20T04:56:42;2.17;;;1.50;;
74616;SDS011;63123;50.906;4.198;2023-07-20T04:59:08;1.60;;;1.20;;
74616;SDS011;63123;50.906;4.198;2023-07-20T05:01:34;1.45;;;1.25;;
74616;SDS011;63123;50.906;4.198;2023-07-20T05:03:59;1.10;;;1.00;;
74616;SDS011;63123;50.906;4.198;2023-07-20T05:06:25;1.33;;;1.23;;
74616;SDS011;63123;50.906;4.198;2023-07-20T05:08:51;1.40;;;1.30;;
74616;SDS011;63123;50.906;4.198;2023-07-20T05:11:16;2.13;;;1.40;;
74616;SDS011;63123;50.906;4.198;2023-07-20T05:13:42;1.75;;;1.30;;
74616;SDS011;63123;50.906;4.198;2023-07-20T05:16:07;1.45;;;1.35;;
74616;SDS011;63123;50.906;4.198;2023-07-20T05:18:33;1.77;;;1.65;;
74616;SDS011;63123;50.906;4.198;2023-07-20T05:20:58;1.70;;;1.58;;
74616;SDS011;63123;50.906;4.198;2023-07-20T05:23:24;1.38;;;1.27;;
74616;SDS011;63123;50.906;4.198;2023-07-20T05:25:56;1.30;;;1.20;;
74616;SDS011;63123;50.906;4.198;2023-07-20T05:28:23;1.40;;;0.93;;
74616;SDS011;63123;50.906;4.198;2023-07-20T05:30:50;1.30;;;1.20;;
74616;SDS011;63123;50.906;4.198;2023-07-20T05:33:19;1.40;;;1.20;;
74616;SDS011;63123;50.906;4.198;2023-07-20T05:35:45;1.50;;;1.20;;
74616;SDS011;63123;50.906;4.198;2023-07-20T05:38:11;1.55;;;1.10;;
74616;SDS011;63123;50.906;4.198;2023-07-20T05:40:40;2.13;;;1.42;;
74616;SDS011;63123;50.906;4.198;2023-07-20T05:43:07;1.45;;;1.35;;
74616;SDS011;63123;50.906;4.198;2023-07-20T05:45:33;1.20;;;1.10;;
74616;SDS011;63123;50.906;4.198;2023-07-20T05:47:59;2.50;;;1.30;;
74616;SDS011;63123;50.906;4.198;2023-07-20T05:50:24;1.27;;;1.17;;
74616;SDS011;63123;50.906;4.198;2023-07-20T05:52:53;2.10;;;1.38;;
74616;SDS011;63123;50.906;4.198;2023-07-20T05:55:19;1.60;;;1.50;;
74616;SDS011;63123;50.906;4.198;2023-07-20T05:57:45;1.65;;;1.17;;
74616;SDS011;63123;50.906;4.198;2023-07-20T06:00:12;1.40;;;1.15;;
74616;SDS011;63123;50.906;4.198;2023-07-20T06:02:38;1.70;;;1.38;;
74616;SDS011;63123;50.906;4.198;2023-07-20T06:05:05;2.00;;;1.42;;
74616;SDS011;63123;50.906;4.198;2023-07-20T06:07:34;1.65;;;1.33;;
74616;SDS011;63123;50.906;4.198;2023-07-20T06:10:01;1.60;;;1.17;;
74616;SDS011;63123;50.906;4.198;2023-07-20T06:12:27;1.45;;;1.17;;
74616;SDS011;63123;50.906;4.198;2023-07-20T06:14:53;1.70;;;1.50;;
74616;SDS011;63123;50.906;4.198;2023-07-20T06:17:19;1.77;;;1.30;;
74616;SDS011;63123;50.906;4.198;2023-07-20T06:19:44;1.38;;;1.27;;
74616;SDS011;63123;50.906;4.198;2023-07-20T06:22:10;1.50;;;1.20;;
74616;SDS011;63123;50.906;4.198;2023-07-20T06:24:35;1.58;;;1.38;;
74616;SDS011;63123;50.906;4.198;2023-07-20T06:27:01;1.25;;;1.13;;
74616;SDS011;63123;50.906;4.198;2023-07-20T06:29:27;2.97;;;1.42;;
74616;SDS011;63123;50.906;4.198;2023-07-20T06:31:53;1.42;;;1.30;;
74616;SDS011;63123;50.906;4.198;2023-07-20T06:34:18;1.80;;;1.33;;
74616;SDS011;63123;50.906;4.198;2023-07-20T06:36:44;1.23;;;1.13;;
74616;SDS011;63123;50.906;4.198;2023-07-20T06:39:10;3.08;;;1.33;;
74616;SDS011;63123;50.906;4.198;2023-07-20T06:41:36;1.67;;;1.10;;
74616;SDS011;63123;50.906;4.198;2023-07-20T06:44:01;1.20;;;1.10;;
74616;SDS011;63123;50.906;4.198;2023-07-20T06:46:27;1.85;;;1.75;;
74616;SDS011;63123;50.906;4.198;2023-07-20T06:48:53;1.20;;;1.10;;
74616;SDS011;63123;50.906;4.198;2023-07-20T06:51:19;1.33;;;1.23;;
74616;SDS011;63123;50.906;4.198;2023-07-20T06:53:45;1.38;;;1.25;;
74616;SDS011;63123;50.906;4.198;2023-07-20T06:56:11;1.88;;;1.10;;
74616;SDS011;63123;50.906;4.198;2023-07-20T06:58:36;2.22;;;1.20;;
74616;SDS011;63123;50.906;4.198;2023-07-20T07:01:05;1.75;;;1.30;;
74616;SDS011;63123;50.906;4.198;2023-07-20T07:03:32;1.85;;;1.20;;
74616;SDS011;63123;50.906;4.198;2023-07-20T07:05:58;1.25;;;1.15;;
74616;SDS011;63123;50.906;4.198;2023-07-20T07:08:24;1.13;;;1.02;;
74616;SDS011;63123;50.906;4.198;2023-07-20T07:10:50;1.20;;;1.10;;
74616;SDS011;63123;50.906;4.198;2023-07-20T07:13:15;1.50;;;1.30;;
74616;SDS011;63123;50.906;4.198;2023-07-20T07:15:42;1.30;;;1.15;;
74616;SDS011;63123;50.906;4.198;2023-07-20T07:18:07;1.25;;;1.15;;
74616;SDS011;63123;50.906;4.198;2023-07-20T07:20:33;1.38;;;1.27;;
74616;SDS011;63123;50.906;4.198;2023-07-20T07:22:58;1.95;;;1.75;;
74616;SDS011;63123;50.906;4.198;2023-07-20T07:25:24;1.55;;;1.45;;
74616;SDS011;63123;50.906;4.198;2023-07-20T07:27:50;1.52;;;1.10;;
74616;SDS011;63123;50.906;4.198;2023-07-20T07:30:17;2.25;;;1.55;;
74616;SDS011;63123;50.906;4.198;2023-07-20T07:32:42;1.30;;;1.20;;
74616;SDS011;63123;50.906;4.198;2023-07-20T07:35:08;1.20;;;1.10;;
74616;SDS011;63123;50.906;4.198;2023-07-20T07:37:34;1.27;;;1.17;;
74616;SDS011;63123;50.906;4.198;2023-07-20T07:40:00;1.70;;;1.35;;
74616;SDS011;63123;50.906;4.198;2023-07-20T07:42:25;1.15;;;1.05;;
74616;SDS011;63123;50.906;4.198;2023-07-20T07:44:53;1.15;;;1.00;;
74616;SDS011;63123;50.906;4.198;2023-07-20T07:47:19;1.45;;;1.35;;
74616;SDS011;63123;50.906;4.198;2023-07-20T07:49:44;2.00;;;1.25;;
74616;SDS011;63123;50.906;4.198;2023-07-20T07:52:11;1.85;;;1.23;;
74616;SDS011;63123;50.906;4.198;2023-07-20T07:54:39;1.40;;;1.13;;
74616;SDS011;63123;50.906;4.198;2023-07-20T07:57:04;1.08;;;1.00;;
74616;SDS011;63123;50.906;4.198;2023-07-20T07:59:30;1.77;;;1.15;;
74616;SDS011;63123;50.906;4.198;2023-07-20T08:02:01;1.88;;;1.10;;
74616;SDS011;63123;50.906;4.198;2023-07-20T08:04:27;0.90;;;0.90;;
74616;SDS011;63123;50.906;4.198;2023-07-20T08:06:53;1.63;;;1.27;;
74616;SDS011;63123;50.906;4.198;2023-07-20T08:09:18;1.27;;;1.13;;
74616;SDS011;63123;50.906;4.198;2023-07-20T08:11:44;1.40;;;1.30;;
74616;SDS011;63123;50.906;4.198;2023-07-20T08:14:10;1.77;;;1.55;;
74616;SDS011;63123;50.906;4.198;2023-07-20T08:16:35;1.63;;;1.35;;
74616;SDS011;63123;50.906;4.198;2023-07-20T08:19:01;1.23;;;1.13;;
74616;SDS011;63123;50.906;4.198;2023-07-20T08:21:27;1.80;;;1.17;;
74616;SDS011;63123;50.906;4.198;2023-07-20T08:23:53;1.27;;;1.17;;
74616;SDS011;63123;50.906;4.198;2023-07-20T08:26:18;1.30;;;1.02;;
74616;SDS011;63123;50.906;4.198;2023-07-20T08:28:47;1.33;;;1.23;;
74616;SDS011;63123;50.906;4.198;2023-07-20T08:31:13;1.40;;;1.30;;
74616;SDS011;63123;50.906;4.198;2023-07-20T08:33:39;1.10;;;1.00;;
74616;SDS011;63123;50.906;4.198;2023-07-20T08:36:04;1.30;;;1.20;;
74616;SDS011;63123;50.906;4.198;2023-07-20T08:38:30;2.25;;;1.17;;
74616;SDS011;63123;50.906;4.198;2023-07-20T08:40:56;1.10;;;1.00;;
74616;SDS011;63123;50.906;4.198;2023-07-20T08:43:24;1.40;;;1.30;;
74616;SDS011;63123;50.906;4.198;2023-07-20T08:45:50;1.50;;;1.00;;
74616;SDS011;63123;50.906;4.198;2023-07-20T08:48:17;1.10;;;1.00;;
74616;SDS011;63123;50.906;4.198;2023-07-20T08:50:45;1.38;;;1.27;;
74616;SDS011;63123;50.906;4.198;2023-07-20T08:53:12;1.65;;;0.95;;
74616;SDS011;63123;50.906;4.198;2023-07-20T08:55:39;1.08;;;0.88;;
74616;SDS011;63123;50.906;4.198;2023-07-20T08:58:08;2.05;;;1.17;;
74616;SDS011;63123;50.906;4.198;2023-07-20T09:00:36;1.10;;;1.00;;
74616;SDS011;63123;50.906;4.198;2023-07-20T09:03:02;0.80;;;0.80;;
74616;SDS011;63123;50.906;4.198;2023-07-20T09:05:28;1.25;;;1.10;;
74616;SDS011;63123;50.906;4.198;2023-07-20T09:07:55;1.23;;;0.80;;
74616;SDS011;63123;50.906;4.198;2023-07-20T09:10:21;1.00;;;0.90;;
74616;SDS011;63123;50.906;4.198;2023-07-20T09:12:48;1.55;;;0.95;;
74616;SDS011;63123;50.906;4.198;2023-07-20T09:15:14;1.30;;;1.17;;
74616;SDS011;63123;50.906;4.198;2023-07-20T09:17:41;1.27;;;1.17;;
74616;SDS011;63123;50.906;4.198;2023-07-20T09:20:14;1.00;;;0.90;;
74616;SDS011;63123;50.906;4.198;2023-07-20T09:22:41;0.95;;;0.90;;
74616;SDS011;63123;50.906;4.198;2023-07-20T09:25:11;1.80;;;1.23;;
74616;SDS011;63123;50.906;4.198;2023-07-20T09:27:47;1.02;;;0.90;;
74616;SDS011;63123;50.906;4.198;2023-07-20T09:30:14;1.08;;;0.98;;
74616;SDS011;63123;50.906;4.198;2023-07-20T09:32:45;0.80;;;0.80;;
74616;SDS011;63123;50.906;4.198;2023-07-20T09:37:45;0.98;;;0.93;;
74616;SDS011;63123;50.906;4.198;2023-07-20T09:40:14;1.10;;;0.85;;
74616;SDS011;63123;50.906;4.198;2023-07-20T09:42:41;1.02;;;0.90;;
74616;SDS011;63123;50.906;4.198;2023-07-20T09:45:07;0.90;;;0.90;;
74616;SDS011;63123;50.906;4.198;2023-07-20T09:47:35;1.02;;;0.90;;
74616;SDS011;63123;50.906;4.198;2023-07-20T09:50:04;1.25;;;1.08;;
74616;SDS011;63123;50.906;4.198;2023-07-20T09:52:35;1.20;;;1.10;;
74616;SDS011;63123;50.906;4.198;2023-07-20T09:55:05;1.48;;;0.90;;
74616;SDS011;63123;50.906;4.198;2023-07-20T09:57:36;1.80;;;1.20;;
74616;SDS011;63123;50.906;4.198;2023-07-20T10:00:05;0.90;;;0.90;;
74616;SDS011;63123;50.906;4.198;2023-07-20T10:02:43;0.90;;;0.73;;
74616;SDS011;63123;50.906;4.198;2023-07-20T10:05:10;0.65;;;0.65;;
74616;SDS011;63123;50.906;4.198;2023-07-20T10:07:39;0.80;;;0.80;;
74616;SDS011;63123;50.906;4.198;2023-07-20T10:10:13;0.98;;;0.90;;
74616;SDS011;63123;50.906;4.198;2023-07-20T10:12:40;1.27;;;0.85;;
74616;SDS011;63123;50.906;4.198;2023-07-20T10:15:28;1.02;;;0.95;;
74616;SDS011;63123;50.906;4.198;2023-07-20T10:18:02;1.17;;;0.90;;
74616;SDS011;63123;50.906;4.198;2023-07-20T10:20:31;1.63;;;0.75;;
74616;SDS011;63123;50.906;4.198;2023-07-20T10:22:58;1.33;;;1.23;;
74616;SDS011;63123;50.906;4.198;2023-07-20T10:25:25;0.85;;;0.82;;
74616;SDS011;63123;50.906;4.198;2023-07-20T10:27:51;0.90;;;0.80;;
74616;SDS011;63123;50.906;4.198;2023-07-20T10:30:17;0.80;;;0.80;;
74616;SDS011;63123;50.906;4.198;2023-07-20T10:32:44;1.02;;;0.80;;
74616;SDS011;63123;50.906;4.198;2023-07-20T10:35:16;0.95;;;0.80;;
74616;SDS011;63123;50.906;4.198;2023-07-20T10:37:47;1.05;;;0.98;;
74616;SDS011;63123;50.906;4.198;2023-07-20T10:40:30;1.00;;;0.90;;
74616;SDS011;63123;50.906;4.198;2023-07-20T10:45:40;1.15;;;0.95;;
74616;SDS011;63123;50.906;4.198;2023-07-20T10:48:40;1.38;;;0.75;;
74616;SDS011;63123;50.906;4.198;2023-07-20T10:51:12;1.35;;;1.05;;
74616;SDS011;63123;50.906;4.198;2023-07-20T10:53:41;1.00;;;1.00;;
74616;SDS011;63123;50.906;4.198;2023-07-20T10:56:08;1.17;;;1.05;;
74616;SDS011;63123;50.906;4.198;2023-07-20T10:58:37;2.15;;;1.00;;
74616;SDS011;63123;50.906;4.198;2023-07-20T11:01:03;1.48;;;1.25;;
74616;SDS011;63123;50.906;4.198;2023-07-20T11:03:31;0.75;;;0.75;;
74616;SDS011;63123;50.906;4.198;2023-07-20T11:05:58;1.45;;;1.02;;
74616;SDS011;63123;50.906;4.198;2023-07-20T11:08:39;1.10;;;1.00;;
74616;SDS011;63123;50.906;4.198;2023-07-20T11:11:25;1.15;;;0.90;;
74616;SDS011;63123;50.906;4.198;2023-07-20T11:13:56;1.00;;;0.90;;
74616;SDS011;63123;50.906;4.198;2023-07-20T11:16:33;1.25;;;1.15;;
74616;SDS011;63123;50.906;4.198;2023-07-20T11:19:15;1.05;;;0.98;;
74616;SDS011;63123;50.906;4.198;2023-07-20T11:21:44;1.10;;;1.00;;
74616;SDS011;63123;50.906;4.198;2023-07-20T11:24:10;1.10;;;1.00;;
74616;SDS011;63123;50.906;4.198;2023-07-20T11:26:48;1.30;;;1.20;;
74616;SDS011;63123;50.906;4.198;2023-07-20T11:29:15;1.48;;;1.33;;
74616;SDS011;63123;50.906;4.198;2023-07-20T11:31:43;1.20;;;1.10;;
74616;SDS011;63123;50.906;4.198;2023-07-20T11:34:13;1.40;;;1.17;;
74616;SDS011;63123;50.906;4.198;2023-07-20T11:36:40;1.20;;;1.10;;
74616;SDS011;63123;50.906;4.198;2023-07-20T11:39:11;1.50;;;1.40;;
74616;SDS011;63123;50.906;4.198;2023-07-20T11:41:47;1.17;;;1.07;;
74616;SDS011;63123;50.906;4.198;2023-07-20T11:44:17;1.15;;;1.02;;
74616;SDS011;63123;50.906;4.198;2023-07-20T11:46:44;1.35;;;1.25;;
74616;SDS011;63123;50.906;4.198;2023-07-20T11:49:10;1.23;;;1.13;;
74616;SDS011;63123;50.906;4.198;2023-07-20T11:51:36;1.45;;;1.35;;
74616;SDS011;63123;50.906;4.198;2023-07-20T11:54:03;1.40;;;1.30;;
74616;SDS011;63123;50.906;4.198;2023-07-20T11:56:30;1.58;;;1.48;;
74616;SDS011;63123;50.906;4.198;2023-07-20T11:58:56;1.63;;;1.52;;
74616;SDS011;63123;50.906;4.198;2023-07-20T12:01:25;1.55;;;1.23;;
74616;SDS011;63123;50.906;4.198;2023-07-20T12:03:56;1.27;;;1.17;;
74616;SDS011;63123;50.906;4.198;2023-07-20T12:06:29;1.10;;;1.10;;
74616;SDS011;63123;50.906;4.198;2023-07-20T12:08:56;1.40;;;1.30;;
74616;SDS011;63123;50.906;4.198;2023-07-20T12:13:58;1.30;;;1.20;;
74616;SDS011;63123;50.906;4.198;2023-07-20T12:16:26;2.00;;;1.42;;
74616;SDS011;63123;50.906;4.198;2023-07-20T12:19:00;1.30;;;1.20;;
74616;SDS011;63123;50.906;4.198;2023-07-20T12:21:27;1.37;;;1.27;;
74616;SDS011;63123;50.906;4.198;2023-07-20T12:23:54;1.60;;;1.50;;
74616;SDS011;63123;50.906;4.198;2023-07-20T12:26:22;1.30;;;1.20;;
74616;SDS011;63123;50.906;4.198;2023-07-20T12:28:49;1.55;;;1.45;;
74616;SDS011;63123;50.906;4.198;2023-07-20T12:31:14;1.83;;;1.73;;
74616;SDS011;63123;50.906;4.198;2023-07-20T12:33:40;1.50;;;1.40;;
74616;SDS011;63123;50.906;4.198;2023-07-20T12:36:06;1.50;;;1.40;;
74616;SDS011;63123;50.906;4.198;2023-07-20T12:38:33;1.60;;;1.50;;
74616;SDS011;63123;50.906;4.198;2023-07-20T12:41:00;1.50;;;1.40;;
74616;SDS011;63123;50.906;4.198;2023-07-20T12:43:27;1.48;;;1.38;;
74616;SDS011;63123;50.906;4.198;2023-07-20T12:45:53;1.60;;;1.50;;
74616;SDS011;63123;50.906;4.198;2023-07-20T12:48:18;1.60;;;1.50;;
74616;SDS011;63123;50.906;4.198;2023-07-20T12:50:44;1.77;;;1.60;;
74616;SDS011;63123;50.906;4.198;2023-07-20T12:53:10;1.60;;;1.50;;
74616;SDS011;63123;50.906;4.198;2023-07-20T12:55:35;1.55;;;1.45;;
74616;SDS011;63123;50.906;4.198;2023-07-20T12:58:02;1.60;;;1.50;;
74616;SDS011;63123;50.906;4.198;2023-07-20T13:00:27;1.67;;;1.58;;
74616;SDS011;63123;50.906;4.198;2023-07-20T13:02:53;1.42;;;1.33;;
74616;SDS011;63123;50.906;4.198;2023-07-20T13:05:18;1.60;;;1.50;;
74616;SDS011;63123;50.906;4.198;2023-07-20T13:07:44;1.80;;;1.70;;
74616;SDS011;63123;50.906;4.198;2023-07-20T13:10:11;1.60;;;1.50;;
74616;SDS011;63123;50.906;4.198;2023-07-20T13:12:37;1.85;;;1.75;;
74616;SDS011;63123;50.906;4.198;2023-07-20T13:15:04;1.85;;;1.58;;
74616;SDS011;63123;50.906;4.198;2023-07-20T13:17:31;1.48;;;1.38;;
74616;SDS011;63123;50.906;4.198;2023-07-20T13:19:58;2.17;;;1.65;;
74616;SDS011;63123;50.906;4.198;2023-07-20T13:22:23;1.48;;;1.38;;
74616;SDS011;63123;50.906;4.198;2023-07-20T13:24:49;1.95;;;1.85;;
74616;SDS011;63123;50.906;4.198;2023-07-20T13:27:18;1.67;;;1.58;;
74616;SDS011;63123;50.906;4.198;2023-07-20T13:29:44;2.00;;;1.60;;
74616;SDS011;63123;50.906;4.198;2023-07-20T13:32:12;1.75;;;1.65;;
74616;SDS011;63123;50.906;4.198;2023-07-20T13:34:43;1.85;;;1.65;;
74616;SDS011;63123;50.906;4.198;2023-07-20T13:37:09;1.67;;;1.55;;
74616;SDS011;63123;50.906;4.198;2023-07-20T13:39:36;1.83;;;1.63;;
74616;SDS011;63123;50.906;4.198;2023-07-20T13:42:02;1.73;;;1.63;;
74616;SDS011;63123;50.906;4.198;2023-07-20T13:44:30;1.80;;;1.70;;
74616;SDS011;63123;50.906;4.198;2023-07-20T13:46:59;1.60;;;1.50;;
74616;SDS011;63123;50.906;4.198;2023-07-20T13:49:25;1.75;;;1.55;;
74616;SDS011;63123;50.906;4.198;2023-07-20T13:51:51;1.35;;;1.25;;
74616;SDS011;63123;50.906;4.198;2023-07-20T13:54:16;1.70;;;1.60;;
74616;SDS011;63123;50.906;4.198;2023-07-20T13:56:42;1.48;;;1.38;;
74616;SDS011;63123;50.906;4.198;2023-07-20T13:59:08;1.60;;;1.50;;
74616;SDS011;63123;50.906;4.198;2023-07-20T14:01:33;1.83;;;1.73;;
74616;SDS011;63123;50.906;4.198;2023-07-20T14:04:00;1.63;;;1.52;;
74616;SDS011;63123;50.906;4.198;2023-07-20T14:06:29;1.63;;;1.40;;
74616;SDS011;63123;50.906;4.198;2023-07-20T14:08:56;1.52;;;1.42;;
74616;SDS011;63123;50.906;4.198;2023-07-20T14:11:21;1.30;;;1.20;;
74616;SDS011;63123;50.906;4.198;2023-07-20T14:13:47;1.70;;;1.60;;
74616;SDS011;63123;50.906;4.198;2023-07-20T14:16:13;3.05;;;1.60;;
74616;SDS011;63123;50.906;4.198;2023-07-20T14:18:39;1.60;;;1.50;;
74616;SDS011;63123;50.906;4.198;2023-07-20T14:21:04;2.22;;;1.60;;
74616;SDS011;63123;50.906;4.198;2023-07-20T14:23:31;2.10;;;1.42;;
74616;SDS011;63123;50.906;4.198;2023-07-20T14:25:57;1.80;;;1.70;;
74616;SDS011;63123;50.906;4.198;2023-07-20T14:28:24;1.80;;;1.65;;
74616;SDS011;63123;50.906;4.198;2023-07-20T14:30:49;1.75;;;1.65;;
74616;SDS011;63123;50.906;4.198;2023-07-20T14:33:15;2.85;;;1.73;;
74616;SDS011;63123;50.906;4.198;2023-07-20T14:35:41;2.47;;;1.65;;
74616;SDS011;63123;50.906;4.198;2023-07-20T14:38:06;2.67;;;1.85;;
74616;SDS011;63123;50.906;4.198;2023-07-20T14:40:32;2.10;;;1.90;;
74616;SDS011;63123;50.906;4.198;2023-07-20T14:42:58;2.10;;;1.77;;
74616;SDS011;63123;50.906;4.198;2023-07-20T14:45:26;1.90;;;1.63;;
74616;SDS011;63123;50.906;4.198;2023-07-20T14:47:52;2.00;;;1.77;;
74616;SDS011;63123;50.906;4.198;2023-07-20T14:50:19;1.98;;;1.80;;
74616;SDS011;63123;50.906;4.198;2023-07-20T14:52:45;2.60;;;1.63;;
74616;SDS011;63123;50.906;4.198;2023-07-20T14:55:11;2.03;;;1.70;;
74616;SDS011;63123;50.906;4.198;2023-07-20T14:57:37;2.08;;;1.60;;
74616;SDS011;63123;50.906;4.198;2023-07-20T15:00:03;2.47;;;1.80;;
74616;SDS011;63123;50.906;4.198;2023-07-20T15:02:38;1.67;;;1.58;;